createdAt,value
2016-04-20T08:27:48.675Z,26.29
2016-04-20T08:28:48.958Z,26.34
2016-04-20T08:29:48.961Z,26.19
2016-04-20T08:30:48.964Z,25.92
2016-04-20T08:31:48.982Z,25.93
2016-04-20T08:32:48.985Z,25.62
2016-04-20T08:33:49.004Z,25.29
2016-04-20T08:34:49.006Z,24.93
2016-04-20T08:35:49.009Z,24.79
2016-04-20T08:36:49.012Z,25.09
2016-04-20T08:37:49.029Z,25.63
2016-04-20T08:38:49.032Z,26.27
2016-04-20T08:39:49.051Z,26.85
2016-04-20T08:40:49.069Z,27.08
2016-04-20T08:41:49.056Z,27.28
2016-04-20T08:42:49.059Z,27.5
2016-04-20T08:43:49.093Z,27.83
2016-04-20T08:44:49.080Z,27.81
2016-04-20T08:45:49.082Z,27.83
2016-04-20T08:46:49.085Z,27.86
2016-04-20T08:47:49.088Z,28.1
2016-04-20T08:48:49.107Z,28.22
2016-04-20T08:49:49.172Z,27.72
2016-04-20T08:50:49.112Z,27.61
2016-04-20T08:51:49.130Z,27.75
2016-04-20T08:52:49.133Z,27.82
2016-04-20T08:53:49.136Z,27.81
2016-04-20T08:54:49.153Z,28.01
2016-04-20T08:55:49.156Z,28.22
2016-04-20T08:56:49.158Z,28.45
2016-04-20T08:57:49.162Z,28.7
2016-04-20T08:58:49.180Z,29.35
2016-04-20T08:59:49.167Z,29.84
2016-04-20T09:00:49.186Z,30.18
2016-04-20T09:01:49.188Z,30.59
2016-04-20T09:02:49.191Z,30.54
2016-04-20T09:03:49.209Z,30.36
2016-04-20T09:04:49.399Z,30.69
2016-04-20T09:05:49.229Z,30.73
2016-04-20T09:06:49.218Z,30.43
2016-04-20T09:07:49.235Z,30.02
2016-04-20T09:08:49.238Z,29.73
2016-04-20T09:09:49.241Z,29.61
2016-04-20T09:10:49.244Z,29.89
2016-04-20T09:11:49.246Z,29.67
2016-04-20T09:12:49.249Z,29.68
2016-04-20T09:13:49.268Z,30.03
2016-04-20T09:14:49.270Z,30.21
2016-04-20T09:15:49.288Z,29.84
2016-04-20T09:16:49.275Z,29.02
2016-04-20T09:17:49.278Z,28.62
2016-04-20T09:18:49.281Z,28.35
2016-04-20T09:19:49.471Z,28.28
2016-04-20T09:20:49.301Z,28.12
2016-04-20T09:21:49.320Z,27.07
2016-04-20T09:22:49.306Z,26.27
2016-04-20T09:23:49.309Z,26.1
2016-04-20T09:24:49.327Z,25.88
2016-04-20T09:25:49.346Z,25.55
2016-04-20T09:26:49.332Z,25.34
2016-04-20T09:27:49.351Z,25.04
2016-04-20T09:28:53.494Z,24.69
2016-04-20T09:29:49.357Z,24.36
2016-04-20T09:30:49.359Z,23.4
2016-04-20T09:31:49.362Z,22.61
2016-04-20T09:32:49.379Z,21.66
2016-04-20T09:33:49.382Z,21.01
2016-04-20T09:34:49.495Z,20.3
2016-04-20T09:35:49.387Z,19.48
2016-04-20T09:36:49.390Z,18.79
2016-04-20T09:37:49.377Z,18.13
2016-04-20T09:38:49.396Z,17.73
2016-04-20T09:39:49.508Z,17.42
2016-04-20T09:40:49.401Z,17.3
2016-04-20T09:41:49.404Z,17.3
2016-04-20T09:42:49.406Z,17.23
2016-04-20T09:43:49.425Z,17.13
2016-04-20T09:44:49.427Z,16.91
2016-04-20T09:45:49.430Z,16.64
2016-04-20T09:46:49.464Z,16.4
2016-04-20T09:47:49.436Z,15.96
2016-04-20T09:48:49.439Z,15.75
2016-04-20T09:49:49.535Z,15.63
2016-04-20T09:50:49.366Z,15.36
2016-04-20T09:51:49.462Z,15.3
2016-04-20T09:52:49.465Z,15.18
2016-04-20T09:53:49.468Z,15.19
2016-04-20T09:54:49.471Z,15.22
2016-04-20T09:55:49.473Z,15.15
2016-04-20T09:56:49.476Z,15.11
2016-04-20T09:57:49.479Z,15.14
2016-04-20T09:58:49.481Z,15.15
2016-04-20T09:59:49.484Z,15.19
2016-04-20T10:00:49.501Z,15.19
2016-04-20T10:01:49.489Z,15.1
2016-04-20T10:02:49.492Z,15.19
2016-04-20T10:03:49.509Z,15.17
2016-04-20T10:04:49.512Z,15.17
2016-04-20T10:05:49.515Z,15.18
2016-04-20T10:06:49.517Z,15.12
2016-04-20T10:07:49.520Z,15.26
2016-04-20T10:08:49.523Z,15.25
2016-04-20T10:09:49.542Z,15.22
2016-04-20T10:10:49.529Z,15.19
2016-04-20T10:11:49.531Z,15.15
2016-04-20T10:12:49.534Z,15.1
2016-04-20T10:13:49.553Z,15.25
2016-04-20T10:14:49.540Z,15.37
2016-04-20T10:15:49.558Z,15.26
2016-04-20T10:16:49.655Z,15.44
2016-04-20T10:17:49.592Z,15.35
2016-04-20T10:18:49.564Z,15.25
2016-04-20T10:19:49.566Z,15.18
2016-04-20T10:20:49.569Z,15.27
2016-04-20T10:21:49.572Z,15.23
2016-04-20T10:22:49.589Z,15.19
2016-04-20T10:23:49.577Z,15.18
2016-04-20T10:24:49.580Z,15.22
2016-04-20T10:25:49.582Z,15.17
2016-04-20T10:26:49.600Z,15.3
2016-04-20T10:27:49.587Z,15.18
2016-04-20T10:28:49.590Z,15.08
2016-04-20T10:29:49.608Z,15.05
2016-04-20T10:30:49.611Z,15.04
2016-04-20T10:31:49.754Z,15.05
2016-04-20T10:32:49.616Z,15.11
2016-04-20T10:33:49.619Z,15.23
2016-04-20T10:34:49.654Z,15.29
2016-04-20T10:35:49.625Z,15.3
2016-04-20T10:36:49.471Z,15.41
2016-04-20T10:37:49.817Z,15.45
2016-04-20T10:38:49.632Z,15.39
2016-04-20T10:39:49.635Z,15.45
2016-04-20T10:40:49.653Z,15.37
2016-04-20T10:41:49.688Z,15.27
2016-04-20T10:42:49.659Z,15.22
2016-04-20T10:43:49.662Z,15.23
2016-04-20T10:44:49.648Z,15.18
2016-04-20T10:45:49.698Z,15.26
2016-04-20T10:46:49.670Z,15.25
2016-04-20T10:47:49.673Z,15.22
2016-04-20T10:48:49.675Z,15.22
2016-04-20T10:49:49.678Z,15.14
2016-04-20T10:50:49.680Z,15.11
2016-04-20T10:51:49.667Z,15.08
2016-04-20T10:52:49.686Z,15.15
2016-04-20T10:53:49.704Z,15.19
2016-04-20T10:54:49.691Z,15.25
2016-04-20T10:55:49.694Z,15.18
2016-04-20T10:56:49.697Z,15.26
2016-04-20T10:57:49.699Z,15.25
2016-04-20T10:58:49.702Z,15.22
2016-04-20T10:59:49.704Z,15.18
2016-04-20T11:00:49.707Z,15.26
2016-04-20T11:01:49.710Z,15.23
2016-04-20T11:02:49.713Z,15.23
2016-04-20T11:03:49.732Z,15.39
2016-04-20T11:04:49.718Z,15.44
2016-04-20T11:05:49.737Z,15.45
2016-04-20T11:06:49.739Z,15.43
2016-04-20T11:07:49.742Z,15.54
2016-04-20T11:08:49.729Z,15.51
2016-04-20T11:09:49.732Z,15.39
2016-04-20T11:10:49.734Z,15.43
2016-04-20T11:11:49.753Z,15.39
2016-04-20T11:12:49.740Z,15.35
2016-04-20T11:13:49.759Z,15.37
2016-04-20T11:14:49.745Z,15.45
2016-04-20T11:15:49.748Z,15.5
2016-04-20T11:16:49.766Z,15.59
2016-04-20T11:17:49.753Z,15.55
2016-04-20T11:18:49.772Z,15.52
2016-04-20T11:19:49.775Z,15.43
2016-04-20T11:20:49.778Z,15.44
2016-04-20T11:21:49.780Z,15.36
2016-04-20T11:22:49.783Z,15.37
2016-04-20T11:23:49.785Z,15.45
2016-04-20T11:24:49.788Z,15.48
2016-04-20T11:25:49.791Z,15.5
2016-04-20T11:26:49.808Z,15.43
2016-04-20T11:27:49.796Z,15.55
2016-04-20T11:28:49.798Z,15.47
2016-04-20T11:29:49.801Z,15.55
2016-04-20T11:30:49.804Z,15.54
2016-04-20T11:31:49.807Z,15.59
2016-04-20T11:32:49.810Z,15.62
2016-04-20T11:33:49.813Z,15.7
2016-04-20T11:34:49.815Z,15.63
2016-04-20T11:35:49.818Z,15.72
2016-04-20T11:36:49.820Z,15.75
2016-04-20T11:37:49.838Z,15.7
2016-04-20T11:38:49.873Z,15.83
2016-04-20T11:39:49.829Z,15.75
2016-04-20T11:40:49.831Z,15.76
2016-04-20T11:41:49.834Z,15.88
2016-04-20T11:42:49.836Z,15.9
2016-04-20T11:43:49.839Z,15.94
2016-04-20T11:44:49.856Z,15.94
2016-04-20T11:45:49.845Z,16
2016-04-20T11:46:49.862Z,15.99
2016-04-20T11:47:49.849Z,16.03
2016-04-20T11:48:49.853Z,15.88
2016-04-20T11:49:49.855Z,15.94
2016-04-20T11:50:49.858Z,15.88
2016-04-20T11:51:49.861Z,15.94
2016-04-20T11:52:49.863Z,16.03
2016-04-20T11:53:49.866Z,16
2016-04-20T11:54:49.869Z,15.98
2016-04-20T11:55:49.886Z,16.02
2016-04-20T11:56:49.874Z,16.02
2016-04-20T11:57:49.891Z,16
2016-04-20T11:58:49.910Z,16
2016-04-20T11:59:49.898Z,16.08
2016-04-20T12:00:49.900Z,16.1
2016-04-20T12:01:49.888Z,16.08
2016-04-20T12:02:49.890Z,16.03
2016-04-20T12:03:50.532Z,16
2016-04-20T12:04:49.895Z,15.98
2016-04-20T12:05:49.899Z,16.05
2016-04-20T12:06:49.916Z,16.12
2016-04-20T12:07:49.904Z,16.1
2016-04-20T12:08:49.906Z,15.98
2016-04-20T12:09:49.768Z,16.05
2016-04-20T12:10:49.911Z,15.96
2016-04-20T12:11:49.914Z,15.9
2016-04-20T12:12:49.933Z,16
2016-04-20T12:13:49.920Z,15.98
2016-04-20T12:14:49.938Z,15.91
2016-04-20T12:15:49.940Z,16.02
2016-04-20T12:16:49.927Z,16.02
2016-04-20T12:17:49.931Z,16.05
2016-04-20T12:18:49.934Z,16.09
2016-04-20T12:19:49.936Z,16.09
2016-04-20T12:20:49.939Z,16.09
2016-04-20T12:21:49.956Z,16.09
2016-04-20T12:22:49.959Z,16.08
2016-04-20T12:23:49.962Z,16.06
2016-04-20T12:24:49.980Z,16.06
2016-04-20T12:25:49.967Z,16.13
2016-04-20T12:26:49.969Z,16.13
2016-04-20T12:27:49.972Z,16.06
2016-04-20T12:28:49.975Z,16.09
2016-04-20T12:29:49.963Z,16.13
2016-04-20T12:30:49.980Z,16.17
2016-04-20T12:31:49.984Z,16.16
2016-04-20T12:32:49.985Z,16.1
2016-04-20T12:33:49.988Z,16.16
2016-04-20T12:34:49.991Z,16.18
2016-04-20T12:35:50.057Z,16.24
2016-04-20T12:36:49.997Z,16.24
2016-04-20T12:37:50.000Z,16.24
2016-04-20T12:38:50.002Z,16.26
2016-04-20T12:39:50.005Z,16.18
2016-04-20T12:40:49.993Z,16.24
2016-04-20T12:41:50.011Z,16.29
2016-04-20T12:42:50.013Z,16.31
2016-04-20T12:43:50.000Z,16.37
2016-04-20T12:44:50.018Z,16.41
2016-04-20T12:45:50.021Z,16.43
2016-04-20T12:46:50.024Z,16.34
2016-04-20T12:47:50.043Z,16.43
2016-04-20T12:48:50.029Z,16.43
2016-04-20T12:49:50.032Z,16.39
2016-04-20T12:50:49.987Z,16.54
2016-04-20T12:51:50.053Z,16.43
2016-04-20T12:52:50.040Z,16.47
2016-04-20T12:53:50.058Z,16.54
2016-04-20T12:54:50.045Z,16.47
2016-04-20T12:55:50.033Z,16.44
2016-04-20T12:56:50.051Z,16.55
2016-04-20T12:57:50.053Z,16.5
2016-04-20T12:58:50.056Z,16.44
2016-04-20T12:59:50.059Z,16.55
2016-04-20T13:00:50.061Z,16.44
2016-04-20T13:01:50.063Z,16.58
2016-04-20T13:02:50.051Z,16.41
2016-04-20T13:03:50.070Z,16.39
2016-04-20T13:04:50.072Z,16.46
2016-04-20T13:05:50.028Z,16.47
2016-04-20T13:06:50.077Z,16.5
2016-04-20T13:07:50.065Z,16.49
2016-04-20T13:08:50.083Z,16.55
2016-04-20T13:09:50.086Z,16.55
2016-04-20T13:10:50.088Z,16.5
2016-04-20T13:11:50.090Z,16.58
2016-04-20T13:12:50.109Z,16.54
2016-04-20T13:13:50.424Z,16.57
2016-04-20T13:14:50.099Z,16.54
2016-04-20T13:15:50.102Z,16.68
2016-04-20T13:16:50.104Z,16.65
2016-04-20T13:17:49.935Z,16.69
2016-04-20T13:18:50.110Z,16.72
2016-04-20T13:19:50.112Z,16.58
2016-04-20T13:20:50.318Z,16.69
2016-04-20T13:21:50.118Z,16.76
2016-04-20T13:22:50.105Z,16.61
2016-04-20T13:23:50.108Z,16.57
2016-04-20T13:24:50.125Z,16.62
2016-04-20T13:25:50.113Z,16.61
2016-04-20T13:26:50.131Z,16.5
2016-04-20T13:27:50.119Z,16.61
2016-04-20T13:28:50.137Z,16.51
2016-04-20T13:29:50.124Z,16.55
2016-04-20T13:30:50.127Z,16.64
2016-04-20T13:31:50.129Z,16.58
2016-04-20T13:32:50.133Z,16.59
2016-04-20T13:33:50.150Z,16.62
2016-04-20T13:34:50.153Z,16.61
2016-04-20T13:35:49.499Z,16.68
2016-04-20T13:36:50.158Z,16.66
2016-04-20T13:37:50.160Z,16.74
2016-04-20T13:38:50.180Z,16.65
2016-04-20T13:39:50.166Z,16.59
2016-04-20T13:40:50.169Z,16.62
2016-04-20T13:41:50.000Z,16.57
2016-04-20T13:42:50.174Z,16.58
2016-04-20T13:43:50.161Z,16.59
2016-04-20T13:44:50.165Z,16.69
2016-04-20T13:45:50.167Z,16.69
2016-04-20T13:46:50.170Z,16.76
2016-04-20T13:47:50.187Z,16.73
2016-04-20T13:48:50.176Z,16.79
2016-04-20T13:49:50.178Z,16.84
2016-04-20T13:50:50.259Z,16.92
2016-04-20T13:51:50.183Z,16.91
2016-04-20T13:52:50.202Z,16.94
2016-04-20T13:53:50.189Z,16.84
2016-04-20T13:54:50.034Z,16.86
2016-04-20T13:55:50.194Z,16.76
2016-04-20T13:56:50.197Z,16.76
2016-04-20T13:57:50.214Z,16.76
2016-04-20T13:58:50.203Z,16.8
2016-04-20T13:59:50.205Z,16.74
2016-04-20T14:00:50.208Z,16.77
2016-04-20T14:01:50.211Z,16.76
2016-04-20T14:02:50.213Z,16.76
2016-04-20T14:03:50.247Z,16.8
2016-04-20T14:04:50.218Z,16.89
2016-04-20T14:05:50.221Z,16.84
2016-04-20T14:06:50.223Z,16.83
2016-04-20T14:07:50.227Z,16.84
2016-04-20T14:08:50.229Z,16.82
2016-04-20T14:09:50.232Z,16.86
2016-04-20T14:10:50.235Z,16.92
2016-04-20T14:11:50.237Z,16.86
2016-04-20T14:12:50.240Z,16.95
2016-04-20T14:13:50.243Z,17.02
2016-04-20T14:14:50.246Z,16.95
2016-04-20T14:15:50.248Z,16.94
2016-04-20T14:16:50.250Z,16.89
2016-04-20T14:17:50.253Z,16.92
2016-04-20T14:18:50.256Z,16.87
2016-04-20T14:19:50.852Z,16.86
2016-04-20T14:20:50.277Z,16.92
2016-04-20T14:21:50.264Z,16.89
2016-04-20T14:22:50.268Z,16.87
2016-04-20T14:23:50.285Z,16.89
2016-04-20T14:24:50.273Z,16.84
2016-04-20T14:25:50.276Z,16.87
2016-04-20T14:26:50.279Z,16.86
2016-04-20T14:27:50.281Z,16.8
2016-04-20T14:28:50.284Z,16.84
2016-04-20T14:29:50.271Z,16.87
2016-04-20T14:30:50.290Z,16.92
2016-04-20T14:31:50.292Z,16.94
2016-04-20T14:32:50.278Z,16.91
2016-04-20T14:33:50.281Z,16.83
2016-04-20T14:34:50.315Z,16.91
2016-04-20T14:35:50.287Z,16.87
2016-04-20T14:36:50.289Z,16.91
2016-04-20T14:37:50.308Z,16.89
2016-04-20T14:38:50.295Z,16.98
2016-04-20T14:39:50.298Z,16.94
2016-04-20T14:40:50.316Z,17.13
2016-04-20T14:41:50.303Z,17.05
2016-04-20T14:42:50.306Z,17.07
2016-04-20T14:43:50.339Z,17.07
2016-04-20T14:44:50.327Z,17.13
2016-04-20T14:45:50.330Z,17.19
2016-04-20T14:46:51.989Z,17.16
2016-04-20T14:47:50.335Z,17.09
2016-04-20T14:48:50.322Z,17.17
2016-04-20T14:49:50.341Z,17.13
2016-04-20T14:50:50.343Z,17.07
2016-04-20T14:51:50.346Z,17.16
2016-04-20T14:52:50.348Z,17.05
2016-04-20T14:53:50.351Z,17.1
2016-04-20T14:54:50.338Z,16.97
2016-04-20T14:55:50.372Z,17.02
2016-04-20T14:56:50.359Z,16.95
2016-04-20T14:57:50.346Z,16.98
2016-04-20T14:58:50.365Z,17.04
2016-04-20T14:59:50.352Z,17.09
2016-04-20T15:00:50.354Z,16.95
2016-04-20T15:01:50.357Z,16.98
2016-04-20T15:02:50.359Z,17.05
2016-04-20T15:03:50.362Z,16.95
2016-04-20T15:04:50.364Z,17.02
2016-04-20T15:05:50.367Z,16.95
2016-04-20T15:06:50.354Z,16.91
2016-04-20T15:07:50.357Z,16.98
2016-04-20T15:08:50.376Z,16.98
2016-04-20T15:09:50.395Z,17.02
2016-04-20T15:10:50.397Z,16.97
2016-04-20T15:11:50.384Z,16.97
2016-04-20T15:12:50.386Z,17.13
2016-04-20T15:13:50.389Z,17.09
2016-04-20T15:14:50.391Z,17.09
2016-04-20T15:15:50.394Z,16.92
2016-04-20T15:16:50.397Z,16.99
2016-04-20T15:17:50.399Z,16.95
2016-04-20T15:18:50.402Z,16.86
2016-04-20T15:19:50.436Z,16.87
2016-04-20T15:20:50.424Z,16.91
2016-04-20T15:21:50.410Z,16.95
2016-04-20T15:22:50.397Z,16.89
2016-04-20T15:23:50.416Z,16.92
2016-04-20T15:24:50.402Z,16.86
2016-04-20T15:25:50.405Z,16.83
2016-04-20T15:26:50.424Z,16.84
2016-04-20T15:27:50.410Z,16.87
2016-04-20T15:28:50.414Z,16.82
2016-04-20T15:29:50.416Z,16.87
2016-04-20T15:30:50.419Z,16.89
2016-04-20T15:31:50.421Z,16.82
2016-04-20T15:32:50.440Z,16.8
2016-04-20T15:33:50.427Z,16.87
2016-04-20T15:34:50.445Z,16.8
2016-04-20T15:35:50.432Z,16.82
2016-04-20T15:36:50.439Z,16.89
2016-04-20T15:37:50.442Z,16.83
2016-04-20T15:38:50.461Z,16.82
2016-04-20T15:39:50.432Z,16.86
2016-04-20T15:40:50.436Z,16.84
2016-04-20T15:41:50.453Z,16.72
2016-04-20T15:42:50.441Z,16.82
2016-04-20T15:43:50.459Z,16.77
2016-04-20T15:44:50.462Z,16.82
2016-04-20T15:45:50.464Z,16.83
2016-04-20T15:46:50.452Z,16.77
2016-04-20T15:47:50.470Z,16.84
2016-04-20T15:48:50.458Z,16.77
2016-04-20T15:49:50.460Z,16.74
2016-04-20T15:50:50.478Z,16.74
2016-04-20T15:51:50.480Z,16.73
2016-04-20T15:52:50.483Z,16.76
2016-04-20T15:53:50.486Z,16.72
2016-04-20T15:54:50.504Z,16.66
2016-04-20T15:55:50.476Z,16.77
2016-04-20T15:56:50.478Z,16.73
2016-04-20T15:57:50.481Z,16.72
2016-04-20T15:58:50.521Z,16.69
2016-04-20T15:59:50.565Z,16.65
2016-04-20T16:00:50.610Z,16.72
2016-04-20T16:01:50.669Z,16.73
2016-04-20T16:02:50.734Z,16.59
2016-04-20T16:03:50.724Z,16.66
2016-04-20T16:04:50.740Z,16.58
2016-04-20T16:06:47.832Z,16.55
2016-04-20T16:07:00.176Z,16.62
2016-04-20T16:08:00.238Z,16.54
2016-04-20T16:09:00.105Z,16.55
2016-04-20T16:10:00.255Z,16.5
2016-04-20T16:11:00.262Z,16.58
2016-04-20T16:12:00.271Z,16.62
2016-04-20T16:13:00.277Z,16.58
2016-04-20T16:14:00.282Z,16.59
2016-04-20T16:15:00.271Z,16.55
2016-04-20T16:16:00.276Z,16.66
2016-04-20T16:17:00.279Z,16.49
2016-04-20T16:18:00.300Z,16.54
2016-04-20T16:19:00.288Z,16.43
2016-04-20T16:20:00.291Z,16.55
2016-04-20T16:21:00.295Z,16.47
2016-04-20T16:22:00.298Z,16.49
2016-04-20T16:23:00.302Z,16.44
2016-04-20T16:24:00.320Z,16.39
2016-04-20T16:25:00.323Z,16.36
2016-04-20T16:26:00.310Z,16.4
2016-04-20T16:27:00.313Z,16.4
2016-04-20T16:28:00.316Z,16.31
2016-04-20T16:29:00.319Z,16.31
2016-04-20T16:30:00.338Z,16.32
2016-04-20T16:31:00.325Z,16.28
2016-04-20T16:32:00.327Z,16.31
2016-04-20T16:33:00.330Z,16.31
2016-04-20T16:34:00.332Z,16.25
2016-04-20T16:35:00.335Z,16.22
2016-04-20T16:36:00.338Z,16.21
2016-04-20T16:37:00.324Z,16.21
2016-04-20T16:38:00.327Z,16.13
2016-04-20T16:39:00.330Z,16.13
2016-04-20T16:40:00.333Z,16.16
2016-04-20T16:41:00.351Z,16.08
2016-04-20T16:42:00.338Z,16.1
2016-04-20T16:43:00.357Z,16.1
2016-04-20T16:44:00.359Z,16.18
2016-04-20T16:45:00.346Z,16.12
2016-04-20T16:46:00.349Z,16.06
2016-04-20T16:47:00.351Z,16.1
2016-04-20T16:48:00.354Z,16
2016-04-20T16:49:00.357Z,15.99
2016-04-20T16:50:00.360Z,15.98
2016-04-20T16:51:00.363Z,16.02
2016-04-20T16:52:00.365Z,16.02
2016-04-20T16:53:00.384Z,16
2016-04-20T16:54:00.370Z,15.9
2016-04-20T16:55:00.373Z,15.98
2016-04-20T16:56:00.361Z,15.91
2016-04-20T16:57:00.378Z,15.81
2016-04-20T16:58:00.381Z,15.85
2016-04-20T16:59:00.384Z,15.85
2016-04-20T17:00:00.372Z,15.8
2016-04-20T17:01:00.374Z,15.85
2016-04-20T17:02:00.377Z,15.78
2016-04-20T17:03:00.379Z,15.78
2016-04-20T17:04:00.382Z,15.76
2016-04-20T17:05:00.385Z,15.78
2016-04-20T17:06:00.388Z,15.72
2016-04-20T17:07:00.390Z,15.65
2016-04-20T17:08:00.408Z,15.66
2016-04-20T17:09:00.396Z,15.67
2016-04-20T17:10:00.398Z,15.59
2016-04-20T17:11:00.401Z,15.62
2016-04-20T17:12:00.419Z,15.55
2016-04-20T17:13:00.438Z,15.55
2016-04-20T17:14:00.409Z,15.45
2016-04-20T17:15:00.396Z,15.54
2016-04-20T17:16:00.415Z,15.47
2016-04-20T17:17:00.418Z,15.41
2016-04-20T17:18:00.420Z,15.43
2016-04-20T17:19:00.422Z,15.43
2016-04-20T17:20:00.409Z,15.44
2016-04-20T17:21:00.412Z,15.43
2016-04-20T17:22:00.415Z,15.35
2016-04-20T17:23:00.434Z,15.32
2016-04-20T17:24:00.436Z,15.35
2016-04-20T17:25:00.423Z,15.23
2016-04-20T17:26:00.411Z,15.23
2016-04-20T17:27:00.428Z,15.17
2016-04-20T17:28:00.446Z,15.18
2016-04-20T17:29:00.433Z,15.14
2016-04-20T17:30:00.422Z,15.11
2016-04-20T17:31:00.439Z,15.08
2016-04-20T17:32:00.441Z,15.08
2016-04-20T17:33:00.445Z,15
2016-04-20T17:34:00.447Z,15.08
2016-04-20T17:35:00.450Z,15.07
2016-04-20T17:36:00.469Z,15.02
2016-04-20T17:37:00.455Z,14.97
2016-04-20T17:38:00.443Z,14.94
2016-04-20T17:39:00.445Z,14.82
2016-04-20T17:40:00.448Z,14.85
2016-04-20T17:41:00.451Z,14.81
2016-04-20T17:42:00.454Z,14.66
2016-04-20T17:43:00.457Z,14.7
2016-04-20T17:44:00.459Z,14.7
2016-04-20T17:45:00.462Z,14.68
2016-04-20T17:46:00.449Z,14.62
2016-04-20T17:47:00.451Z,14.52
2016-04-20T17:48:00.470Z,14.45
2016-04-20T17:49:00.347Z,14.56
2016-04-20T17:50:00.460Z,14.49
2016-04-20T17:51:00.462Z,14.48
2016-04-20T17:52:00.340Z,14.41
2016-04-20T17:53:00.483Z,14.4
2016-04-20T17:54:07.132Z,14.38
2016-04-20T17:55:00.463Z,14.52
2016-04-20T17:56:00.465Z,14.41
2016-04-20T17:57:00.468Z,14.36
2016-04-20T17:58:00.487Z,14.26
2016-04-20T17:59:00.473Z,14.41
2016-04-20T18:00:00.320Z,14.38
2016-04-20T18:01:00.478Z,14.31
2016-04-20T18:02:00.481Z,14.26
2016-04-20T18:03:00.484Z,14.18
2016-04-20T18:04:00.486Z,14.23
2016-04-20T18:05:00.490Z,14.11
2016-04-20T18:06:00.508Z,14.07
2016-04-20T18:07:00.462Z,14.04
2016-04-20T18:08:00.480Z,14.07
2016-04-20T18:09:00.484Z,14.05
2016-04-20T18:10:00.486Z,14.01
2016-04-20T18:11:00.488Z,13.95
2016-04-20T18:12:00.476Z,13.94
2016-04-20T18:13:00.509Z,13.93
2016-04-20T18:14:00.496Z,13.93
2016-04-20T18:15:00.342Z,13.87
2016-04-20T18:16:00.361Z,13.73
2016-04-20T18:17:00.364Z,13.78
2016-04-20T18:18:00.527Z,13.79
2016-04-20T18:19:00.498Z,13.79
2016-04-20T18:20:00.344Z,13.73
2016-04-20T18:21:00.520Z,13.73
2016-04-20T18:22:00.542Z,13.73
2016-04-20T18:23:00.514Z,13.75
2016-04-20T18:24:00.517Z,13.68
2016-04-20T18:25:00.503Z,13.71
2016-04-20T18:26:00.521Z,13.6
2016-04-20T18:27:00.525Z,13.67
2016-04-20T18:28:00.511Z,13.68
2016-04-20T18:29:00.514Z,13.65
2016-04-20T18:30:00.517Z,13.64
2016-04-20T18:31:00.519Z,13.64
2016-04-20T18:32:00.507Z,13.57
2016-04-20T18:33:00.525Z,13.57
2016-04-20T18:34:00.527Z,13.55
2016-04-20T18:35:00.515Z,13.52
2016-04-20T18:36:00.533Z,13.47
2016-04-20T18:37:00.364Z,13.47
2016-04-20T18:38:00.523Z,13.45
2016-04-20T18:39:00.526Z,13.45
2016-04-20T18:40:00.513Z,13.37
2016-04-20T18:41:00.532Z,13.3
2016-04-20T18:42:00.518Z,13.33
2016-04-20T18:43:00.521Z,13.28
2016-04-20T18:44:00.554Z,13.33
2016-04-20T18:45:00.526Z,13.33
2016-04-20T18:46:00.528Z,13.36
2016-04-20T18:47:00.532Z,13.28
2016-04-20T18:48:00.534Z,13.36
2016-04-20T18:49:00.521Z,13.28
2016-04-20T18:50:00.570Z,13.24
2016-04-20T18:51:00.542Z,13.3
2016-04-20T18:52:00.560Z,13.37
2016-04-20T18:53:00.532Z,13.33
2016-04-20T18:54:00.534Z,13.37
2016-04-20T18:55:00.537Z,13.26
2016-04-20T18:56:00.540Z,13.31
2016-04-20T18:57:00.542Z,13.27
2016-04-20T18:58:00.545Z,13.27
2016-04-20T18:59:00.533Z,13.31
2016-04-20T19:00:00.550Z,13.17
2016-04-20T19:01:00.554Z,13.27
2016-04-20T19:02:00.541Z,13.33
2016-04-20T19:03:00.543Z,13.26
2016-04-20T19:04:00.561Z,13.27
2016-04-20T19:05:00.549Z,13.27
2016-04-20T19:06:00.552Z,13.33
2016-04-20T19:07:00.602Z,13.17
2016-04-20T19:08:00.556Z,13.2
2016-04-20T19:09:00.543Z,13.28
2016-04-20T19:10:00.546Z,13.3
2016-04-20T19:11:00.549Z,13.27
2016-04-20T19:12:00.551Z,13.26
2016-04-20T19:13:00.555Z,13.24
2016-04-20T19:14:00.557Z,13.13
2016-04-20T19:15:00.560Z,13.26
2016-04-20T19:16:00.579Z,13.24
2016-04-20T19:17:00.565Z,13.19
2016-04-20T19:18:00.567Z,13.24
2016-04-20T19:19:00.554Z,13.2
2016-04-20T19:20:00.557Z,13.12
2016-04-20T19:21:00.560Z,13.17
2016-04-20T19:22:00.563Z,13.12
2016-04-20T19:23:00.565Z,13.06
2016-04-20T19:24:00.553Z,13.05
2016-04-20T19:25:00.555Z,13.02
2016-04-20T19:26:00.558Z,12.98
2016-04-20T19:27:00.561Z,12.98
2016-04-20T19:28:00.564Z,12.93
2016-04-20T19:29:00.581Z,12.91
2016-04-20T19:30:00.569Z,12.95
2016-04-20T19:31:00.572Z,12.95
2016-04-20T19:32:00.574Z,12.9
2016-04-20T19:33:00.562Z,12.9
2016-04-20T19:34:00.580Z,12.86
2016-04-20T19:35:00.582Z,12.99
2016-04-20T19:36:00.585Z,12.99
2016-04-20T19:37:00.572Z,12.93
2016-04-20T19:38:00.559Z,12.93
2016-04-20T19:39:00.563Z,12.88
2016-04-20T19:40:00.596Z,12.91
2016-04-20T19:41:00.583Z,12.83
2016-04-20T19:42:00.586Z,12.86
2016-04-20T19:43:00.573Z,12.86
2016-04-20T19:44:00.576Z,12.81
2016-04-20T19:45:00.578Z,12.8
2016-04-20T19:46:00.581Z,12.7
2016-04-20T19:47:00.584Z,12.78
2016-04-20T19:48:00.587Z,12.68
2016-04-20T19:49:00.604Z,12.57
2016-04-20T19:50:00.592Z,12.54
2016-04-20T19:51:00.595Z,12.58
2016-04-20T19:52:00.581Z,12.57
2016-04-20T19:53:00.584Z,12.57
2016-04-20T19:54:00.586Z,12.58
2016-04-20T19:55:00.589Z,12.55
2016-04-20T19:56:00.592Z,12.61
2016-04-20T19:57:00.595Z,12.62
2016-04-20T19:58:00.597Z,12.61
2016-04-20T19:59:00.584Z,12.55
2016-04-20T20:00:00.603Z,12.55
2016-04-20T20:01:00.590Z,12.58
2016-04-20T20:02:00.592Z,12.57
2016-04-20T20:03:00.595Z,12.57
2016-04-20T20:04:00.597Z,12.57
2016-04-20T20:05:00.586Z,12.5
2016-04-20T20:06:00.588Z,12.51
2016-04-20T20:07:00.606Z,12.54
2016-04-20T20:08:00.608Z,12.55
2016-04-20T20:09:00.611Z,12.47
2016-04-20T20:10:00.598Z,12.45
2016-04-20T20:11:00.601Z,12.33
2016-04-20T20:12:00.605Z,12.32
2016-04-20T20:13:00.606Z,12.32
2016-04-20T20:14:00.593Z,12.35
2016-04-20T20:15:00.596Z,12.29
2016-04-20T20:16:00.599Z,12.39
2016-04-20T20:17:00.618Z,12.35
2016-04-20T20:18:00.620Z,12.28
2016-04-20T20:19:00.607Z,12.26
2016-04-20T20:20:00.610Z,12.32
2016-04-20T20:21:00.612Z,12.32
2016-04-20T20:22:00.609Z,12.18
2016-04-20T20:23:00.464Z,12.21
2016-04-20T20:24:00.639Z,12.2
2016-04-20T20:25:00.609Z,12.07
2016-04-20T20:26:00.612Z,12.11
2016-04-20T20:27:00.599Z,12.11
2016-04-20T20:28:00.603Z,12.12
2016-04-20T20:29:00.636Z,12.14
2016-04-20T20:30:00.607Z,12.11
2016-04-20T20:31:00.626Z,12.07
2016-04-20T20:32:00.613Z,12.11
2016-04-20T20:33:00.616Z,12.11
2016-04-20T20:34:00.602Z,12
2016-04-20T20:35:00.605Z,12.08
2016-04-20T20:36:00.624Z,11.95
2016-04-20T20:37:00.626Z,11.96
2016-04-20T20:38:00.599Z,11.97
2016-04-20T20:39:00.616Z,11.96
2016-04-20T20:40:00.618Z,11.97
2016-04-20T20:41:00.621Z,11.89
2016-04-20T20:42:00.624Z,11.85
2016-04-20T20:43:00.611Z,11.78
2016-04-20T20:44:00.614Z,11.77
2016-04-20T20:45:00.617Z,11.85
2016-04-20T20:46:00.603Z,11.74
2016-04-20T20:47:00.623Z,11.6
2016-04-20T20:48:00.625Z,11.6
2016-04-20T20:49:00.611Z,11.62
2016-04-20T20:50:00.631Z,11.62
2016-04-20T20:51:00.633Z,11.68
2016-04-20T20:52:00.619Z,11.7
2016-04-20T20:53:00.622Z,11.68
2016-04-20T20:54:00.626Z,11.68
2016-04-20T20:55:00.628Z,11.62
2016-04-20T20:56:00.615Z,11.6
2016-04-20T20:57:00.649Z,11.59
2016-04-20T20:58:00.636Z,11.56
2016-04-20T20:59:00.638Z,11.52
2016-04-20T21:00:05.173Z,11.58
2016-04-20T21:01:00.472Z,11.48
2016-04-20T21:02:00.632Z,11.53
2016-04-20T21:03:00.619Z,11.6
2016-04-20T21:04:00.638Z,11.51
2016-04-20T21:05:00.640Z,11.52
2016-04-20T21:06:00.643Z,11.58
2016-04-20T21:07:00.630Z,11.6
2016-04-20T21:08:00.633Z,11.56
2016-04-20T21:09:00.619Z,11.53
2016-04-20T21:10:00.638Z,11.53
2016-04-20T21:11:00.626Z,11.56
2016-04-20T21:12:00.643Z,11.48
2016-04-20T21:13:00.646Z,11.49
2016-04-20T21:14:00.633Z,11.44
2016-04-20T21:15:00.620Z,11.41
2016-04-20T21:16:00.639Z,11.43
2016-04-20T21:17:00.625Z,11.35
2016-04-20T21:18:00.628Z,11.35
2016-04-20T21:19:00.631Z,11.35
2016-04-20T21:20:00.633Z,11.33
2016-04-20T21:21:00.480Z,11.3
2016-04-20T21:22:00.638Z,11.34
2016-04-20T21:23:00.641Z,11.27